createdAt,value
2016-05-27T00:00:11.340Z,0
2016-05-27T00:01:11.186Z,0
2016-05-27T00:02:11.361Z,0
2016-05-27T00:03:11.317Z,0
2016-05-27T00:04:13.382Z,0
2016-05-27T00:05:11.306Z,0
2016-05-27T00:06:11.278Z,0
2016-05-27T00:07:11.265Z,0
2016-05-27T00:08:11.096Z,0
2016-05-27T00:09:11.239Z,0
2016-05-27T00:10:11.227Z,0
2016-05-27T00:11:11.244Z,0
2016-05-27T00:12:11.216Z,0
2016-05-27T00:13:11.202Z,0
2016-05-27T00:14:11.175Z,0
2016-05-27T00:15:11.021Z,0
2016-05-27T00:16:11.148Z,0
2016-05-27T00:17:10.979Z,0
2016-05-27T00:18:10.982Z,0
2016-05-27T00:19:10.985Z,0
2016-05-27T00:20:11.113Z,0
2016-05-27T00:21:11.084Z,0
2016-05-27T00:22:11.070Z,0
2016-05-27T00:23:11.073Z,0
2016-05-27T00:24:11.046Z,0
2016-05-27T00:25:10.892Z,0
2016-05-27T00:26:10.895Z,0
2016-05-27T00:27:11.006Z,0
2016-05-27T00:28:11.009Z,0
2016-05-27T00:29:10.995Z,0
2016-05-27T00:30:10.967Z,0
2016-05-27T00:31:11.001Z,0
2016-05-27T00:32:10.957Z,0
2016-05-27T00:33:10.944Z,0
2016-05-27T00:34:11.556Z,0
2016-05-27T00:35:10.605Z,0
2016-05-27T00:36:10.921Z,0
2016-05-27T00:37:10.892Z,0
2016-05-27T00:38:10.723Z,0
2016-05-27T00:39:10.882Z,0
2016-05-27T00:40:10.853Z,0
2016-05-27T00:41:10.841Z,0
2016-05-27T00:42:10.827Z,0
2016-05-27T00:43:10.815Z,0
2016-05-27T00:44:10.802Z,0
2016-05-27T00:45:10.633Z,0
2016-05-27T00:46:10.776Z,0
2016-05-27T00:47:10.763Z,0
2016-05-27T00:48:10.749Z,0
2016-05-27T00:49:11.222Z,0
2016-05-27T00:50:10.724Z,0
2016-05-27T00:51:10.712Z,0
2016-05-27T00:52:10.714Z,0
2016-05-27T00:53:10.529Z,0
2016-05-27T00:54:10.673Z,0
2016-05-27T00:55:10.659Z,0
2016-05-27T00:56:10.490Z,0
2016-05-27T00:57:10.649Z,0
2016-05-27T00:58:10.464Z,0
2016-05-27T00:59:10.609Z,0
2016-05-27T01:00:10.595Z,0
2016-05-27T01:01:10.597Z,0
2016-05-27T01:02:10.570Z,0
2016-05-27T01:03:10.650Z,0
2016-05-27T01:04:10.575Z,0
2016-05-27T01:05:10.389Z,0
2016-05-27T01:06:10.517Z,0
2016-05-27T01:07:10.520Z,0
2016-05-27T01:08:10.538Z,0
2016-05-27T01:09:10.478Z,0
2016-05-27T01:10:10.480Z,0
2016-05-27T01:11:10.468Z,0
2016-05-27T01:12:10.299Z,0
2016-05-27T01:13:10.302Z,0
2016-05-27T01:14:10.414Z,0
2016-05-27T01:15:10.432Z,0
2016-05-27T01:16:10.247Z,0
2016-05-27T01:17:10.391Z,0
2016-05-27T01:18:10.222Z,0
2016-05-27T01:19:10.583Z,0
2016-05-27T01:20:10.196Z,0
2016-05-27T01:21:10.198Z,0
2016-05-27T01:22:10.327Z,0
2016-05-27T01:23:10.312Z,0
2016-05-27T01:24:10.128Z,0
2016-05-27T01:25:10.287Z,0
2016-05-27T01:26:10.274Z,0
2016-05-27T01:27:10.262Z,0
2016-05-27T01:28:10.265Z,0
2016-05-27T01:29:10.251Z,0
2016-05-27T01:30:10.207Z,0
2016-05-27T01:31:10.209Z,0
2016-05-27T01:32:10.197Z,0
2016-05-27T01:33:10.184Z,0
2016-05-27T01:34:10.968Z,0
2016-05-27T01:35:10.158Z,0
2016-05-27T01:36:10.160Z,0
2016-05-27T01:37:10.132Z,0
2016-05-27T01:38:10.119Z,0
2016-05-27T01:39:09.997Z,0
2016-05-27T01:40:10.093Z,0
2016-05-27T01:41:10.096Z,0
2016-05-27T01:42:10.067Z,0
2016-05-27T01:43:10.055Z,0
2016-05-27T01:44:10.041Z,0
2016-05-27T01:45:09.888Z,0
2016-05-27T01:46:10.016Z,0
2016-05-27T01:47:10.018Z,0
2016-05-27T01:48:09.833Z,0
2016-05-27T01:49:10.010Z,0
2016-05-27T01:50:09.845Z,0
2016-05-27T01:51:10.007Z,0
2016-05-27T01:52:09.857Z,0
2016-05-27T01:53:10.004Z,0
2016-05-27T01:54:10.024Z,0
2016-05-27T01:55:10.034Z,0
2016-05-27T01:56:09.700Z,0
2016-05-27T01:57:10.022Z,0
2016-05-27T01:58:10.001Z,0
2016-05-27T01:59:09.993Z,0
2016-05-27T02:00:09.827Z,0
2016-05-27T02:01:09.818Z,0
2016-05-27T02:02:09.962Z,0
2016-05-27T02:03:09.828Z,0
2016-05-27T02:04:10.427Z,0
2016-05-27T02:05:09.930Z,0
2016-05-27T02:06:09.762Z,0
2016-05-27T02:07:09.906Z,0
2016-05-27T02:08:09.895Z,0
2016-05-27T02:09:09.881Z,0
2016-05-27T02:10:09.885Z,0
2016-05-27T02:11:09.715Z,0
2016-05-27T02:12:09.875Z,0
2016-05-27T02:13:09.832Z,0
2016-05-27T02:14:09.834Z,0
2016-05-27T02:15:09.805Z,0
2016-05-27T02:16:09.652Z,0
2016-05-27T02:17:09.780Z,0
2016-05-27T02:18:09.455Z,0
2016-05-27T02:19:09.770Z,0
2016-05-27T02:20:09.788Z,0
2016-05-27T02:21:09.587Z,0
2016-05-27T02:22:09.731Z,0
2016-05-27T02:23:09.562Z,0
2016-05-27T02:24:09.690Z,0
2016-05-27T02:25:09.692Z,0
2016-05-27T02:26:09.679Z,0
2016-05-27T02:27:09.665Z,0
2016-05-27T02:28:09.497Z,0
2016-05-27T02:29:09.640Z,0
2016-05-27T02:30:09.487Z,0
2016-05-27T02:31:09.614Z,0
2016-05-27T02:32:09.601Z,0
2016-05-27T02:33:09.588Z,0
2016-05-27T02:34:09.592Z,0
2016-05-27T02:35:09.406Z,0
2016-05-27T02:36:09.565Z,0
2016-05-27T02:37:09.364Z,0
2016-05-27T02:38:09.525Z,0
2016-05-27T02:39:09.495Z,0
2016-05-27T02:40:09.497Z,0
2016-05-27T02:41:09.485Z,0
2016-05-27T02:42:09.488Z,0
2016-05-27T02:43:09.319Z,0
2016-05-27T02:44:09.447Z,0
2016-05-27T02:45:09.293Z,0
2016-05-27T02:46:09.435Z,0
2016-05-27T02:47:09.423Z,0
2016-05-27T02:48:09.394Z,0
2016-05-27T02:49:09.116Z,0
2016-05-27T02:50:09.385Z,0
2016-05-27T02:51:09.355Z,0
2016-05-27T02:52:09.343Z,0
2016-05-27T02:53:09.346Z,0
2016-05-27T02:54:09.192Z,0
2016-05-27T02:55:09.148Z,0
2016-05-27T02:56:09.323Z,0
2016-05-27T02:57:09.278Z,0
2016-05-27T02:58:09.265Z,0
2016-05-27T02:59:09.143Z,0
2016-05-27T03:00:09.240Z,0
2016-05-27T03:01:09.258Z,0
2016-05-27T03:02:09.229Z,0
2016-05-27T03:03:09.467Z,0
2016-05-27T03:04:09.187Z,0
2016-05-27T03:05:09.018Z,0
2016-05-27T03:06:09.162Z,0
2016-05-27T03:07:09.165Z,0
2016-05-27T03:08:08.995Z,0
2016-05-27T03:09:08.983Z,0
2016-05-27T03:10:09.126Z,0
2016-05-27T03:11:09.113Z,0
2016-05-27T03:12:09.084Z,0
2016-05-27T03:13:08.930Z,0
2016-05-27T03:14:09.059Z,0
2016-05-27T03:15:09.045Z,0
2016-05-27T03:16:09.033Z,0
2016-05-27T03:17:09.050Z,0
2016-05-27T03:18:09.007Z,0
2016-05-27T03:19:09.010Z,0
2016-05-27T03:20:08.981Z,0
2016-05-27T03:21:08.671Z,0
2016-05-27T03:22:08.658Z,0
2016-05-27T03:23:08.833Z,0
2016-05-27T03:24:08.851Z,0
2016-05-27T03:25:08.776Z,0
2016-05-27T03:26:08.918Z,0
2016-05-27T03:27:08.906Z,0
2016-05-27T03:28:08.877Z,0
2016-05-27T03:29:08.724Z,0
2016-05-27T03:30:08.867Z,0
2016-05-27T03:31:08.854Z,0
2016-05-27T03:32:08.716Z,0
2016-05-27T03:33:08.828Z,0
2016-05-27T03:34:09.206Z,0
2016-05-27T03:35:08.803Z,0
2016-05-27T03:36:08.633Z,0
2016-05-27T03:37:08.776Z,0
2016-05-27T03:38:08.779Z,0
2016-05-27T03:39:08.750Z,0
2016-05-27T03:40:08.737Z,0
2016-05-27T03:41:08.725Z,0
2016-05-27T03:42:08.556Z,0
2016-05-27T03:43:08.699Z,0
2016-05-27T03:44:08.686Z,0
2016-05-27T03:45:08.673Z,0
2016-05-27T03:46:08.660Z,0
2016-05-27T03:47:08.631Z,0
2016-05-27T03:48:08.650Z,0
2016-05-27T03:49:08.652Z,0
2016-05-27T03:50:08.608Z,0
2016-05-27T03:51:08.596Z,0
2016-05-27T03:52:08.441Z,0
2016-05-27T03:53:08.569Z,0
2016-05-27T03:54:08.385Z,0
2016-05-27T03:55:08.371Z,0
2016-05-27T03:56:08.515Z,0
2016-05-27T03:57:08.518Z,0
2016-05-27T03:58:08.192Z,0
2016-05-27T03:59:08.492Z,0
2016-05-27T04:00:08.495Z,0
2016-05-27T04:01:08.293Z,0
2016-05-27T04:02:08.453Z,0
2016-05-27T04:03:08.440Z,5
2016-05-27T04:04:08.724Z,5
2016-05-27T04:05:08.273Z,5
2016-05-27T04:06:08.401Z,5
2016-05-27T04:07:08.076Z,5
2016-05-27T04:08:08.375Z,5
2016-05-27T04:09:08.362Z,5
2016-05-27T04:10:08.334Z,5
2016-05-27T04:11:08.337Z,5
2016-05-27T04:12:08.167Z,5
2016-05-27T04:13:08.155Z,5
2016-05-27T04:14:08.157Z,5
2016-05-27T04:15:08.285Z,5
2016-05-27T04:16:08.288Z,10
2016-05-27T04:17:08.259Z,10
2016-05-27T04:18:08.261Z,10
2016-05-27T04:19:09.280Z,10
2016-05-27T04:20:08.220Z,10
2016-05-27T04:21:08.207Z,10
2016-05-27T04:22:08.194Z,10
2016-05-27T04:23:08.182Z,10
2016-05-27T04:24:08.168Z,15
2016-05-27T04:25:08.016Z,15
2016-05-27T04:26:08.143Z,15
2016-05-27T04:27:08.145Z,20
2016-05-27T04:28:08.116Z,20
2016-05-27T04:29:08.104Z,20
2016-05-27T04:30:08.090Z,20
2016-05-27T04:31:07.624Z,20
2016-05-27T04:32:08.096Z,20
2016-05-27T04:33:08.051Z,15
2016-05-27T04:34:07.898Z,15
2016-05-27T04:35:07.948Z,15
2016-05-27T04:36:08.028Z,15
2016-05-27T04:37:08.000Z,15
2016-05-27T04:38:07.847Z,15
2016-05-27T04:39:08.006Z,15
2016-05-27T04:40:07.805Z,15
2016-05-27T04:41:07.808Z,15
2016-05-27T04:42:07.811Z,15
2016-05-27T04:43:07.767Z,15
2016-05-27T04:44:07.909Z,15
2016-05-27T04:45:07.741Z,20
2016-05-27T04:46:07.775Z,20
2016-05-27T04:47:07.886Z,20
2016-05-27T04:48:07.858Z,20
2016-05-27T04:49:07.985Z,25
2016-05-27T04:50:07.691Z,25
2016-05-27T04:51:07.819Z,25
2016-05-27T04:52:07.822Z,25
2016-05-27T04:53:07.637Z,25
2016-05-27T04:54:07.811Z,25
2016-05-27T04:55:07.783Z,25
2016-05-27T04:56:07.613Z,25
2016-05-27T04:57:07.788Z,25
2016-05-27T04:58:07.760Z,30
2016-05-27T04:59:07.747Z,30
2016-05-27T05:00:07.734Z,30
2016-05-27T05:01:07.549Z,35
2016-05-27T05:02:07.676Z,35
2016-05-27T05:03:07.695Z,35
2016-05-27T05:04:08.745Z,40
2016-05-27T05:05:07.653Z,40
2016-05-27T05:06:07.640Z,40
2016-05-27T05:07:07.612Z,40
2016-05-27T05:08:07.615Z,40
2016-05-27T05:09:07.601Z,40
2016-05-27T05:10:07.448Z,40
2016-05-27T05:11:07.561Z,35
2016-05-27T05:12:07.564Z,35
2016-05-27T05:13:07.567Z,35
2016-05-27T05:14:07.381Z,35
2016-05-27T05:15:07.525Z,35
2016-05-27T05:16:07.495Z,35
2016-05-27T05:17:07.342Z,30
2016-05-27T05:18:07.017Z,30
2016-05-27T05:19:08.113Z,25
2016-05-27T05:20:07.444Z,25
2016-05-27T05:21:07.446Z,25
2016-05-27T05:22:07.277Z,25
2016-05-27T05:23:07.421Z,25
2016-05-27T05:24:07.408Z,25
2016-05-27T05:25:07.379Z,25
2016-05-27T05:26:07.382Z,25
2016-05-27T05:27:07.369Z,25
2016-05-27T05:28:07.185Z,20
2016-05-27T05:29:07.328Z,20
2016-05-27T05:30:07.173Z,20
2016-05-27T05:31:07.318Z,20
2016-05-27T05:32:07.149Z,20
2016-05-27T05:33:07.276Z,20
2016-05-27T05:34:06.998Z,20
2016-05-27T05:35:07.266Z,20
2016-05-27T05:36:07.268Z,20
2016-05-27T05:37:07.240Z,20
2016-05-27T05:38:07.227Z,20
2016-05-27T05:39:07.055Z,20
2016-05-27T05:40:07.201Z,20
2016-05-27T05:41:07.187Z,20
2016-05-27T05:42:07.016Z,20
2016-05-27T05:43:07.209Z,20
2016-05-27T05:44:07.147Z,20
2016-05-27T05:45:07.149Z,25
2016-05-27T05:46:07.136Z,25
2016-05-27T05:47:07.108Z,25
2016-05-27T05:48:07.094Z,25
2016-05-27T05:49:07.097Z,25
2016-05-27T05:50:06.756Z,25
2016-05-27T05:51:07.056Z,30
2016-05-27T05:52:07.058Z,30
2016-05-27T05:53:07.030Z,30
2016-05-27T05:54:07.032Z,30
2016-05-27T05:55:06.848Z,25
2016-05-27T05:56:06.991Z,25
2016-05-27T05:57:06.978Z,25
2016-05-27T05:58:06.965Z,25
2016-05-27T05:59:06.968Z,25
2016-05-27T06:00:06.783Z,25
2016-05-27T06:01:06.771Z,25
2016-05-27T06:02:06.914Z,25
2016-05-27T06:03:06.901Z,25
2016-05-27T06:04:07.953Z,20
2016-05-27T06:05:08.565Z,20
2016-05-27T06:06:06.877Z,20
2016-05-27T06:07:08.571Z,20
2016-05-27T06:08:06.868Z,20
2016-05-27T06:09:06.823Z,25
2016-05-27T06:10:06.670Z,25
2016-05-27T06:11:06.813Z,25
2016-05-27T06:12:09.302Z,25
2016-05-27T06:13:06.630Z,25
2016-05-27T06:14:06.774Z,25
2016-05-27T06:15:06.589Z,25
2016-05-27T06:16:06.576Z,25
2016-05-27T06:17:08.473Z,25
2016-05-27T06:18:06.723Z,25
2016-05-27T06:19:06.553Z,30
2016-05-27T06:20:06.539Z,30
2016-05-27T06:21:06.684Z,30
2016-05-27T06:22:08.658Z,30
2016-05-27T06:23:06.658Z,35
2016-05-27T06:24:06.644Z,35
2016-05-27T06:25:06.632Z,35
2016-05-27T06:26:06.463Z,35
2016-05-27T06:27:06.621Z,35
2016-05-27T06:28:06.280Z,35
2016-05-27T06:29:06.564Z,35
2016-05-27T06:30:06.583Z,40
2016-05-27T06:31:06.398Z,40
2016-05-27T06:32:06.385Z,40
2016-05-27T06:33:06.513Z,40
2016-05-27T06:34:06.406Z,40
2016-05-27T06:35:06.190Z,40
2016-05-27T06:36:06.474Z,40
2016-05-27T06:37:06.476Z,45
2016-05-27T06:38:06.479Z,45
2016-05-27T06:39:06.451Z,45
2016-05-27T06:40:06.437Z,45
2016-05-27T06:41:06.269Z,45
2016-05-27T06:42:06.396Z,45
2016-05-27T06:43:06.273Z,45
2016-05-27T06:44:06.262Z,45
2016-05-27T06:45:06.373Z,45
2016-05-27T06:46:06.203Z,45
2016-05-27T06:47:06.347Z,45
2016-05-27T06:48:06.178Z,45
2016-05-27T06:49:05.915Z,45
2016-05-27T06:50:06.324Z,45
2016-05-27T06:51:06.155Z,45
2016-05-27T06:52:06.158Z,45
2016-05-27T06:53:06.144Z,45
2016-05-27T06:54:06.256Z,45
2016-05-27T06:55:06.259Z,45
2016-05-27T06:56:06.074Z,50
2016-05-27T06:57:06.234Z,50
2016-05-27T06:58:06.221Z,50
2016-05-27T06:59:06.208Z,50
2016-05-27T07:00:06.022Z,55
2016-05-27T07:01:06.165Z,55
2016-05-27T07:02:06.153Z,55
2016-05-27T07:03:06.016Z,55
2016-05-27T07:04:06.596Z,60
2016-05-27T07:05:06.129Z,60
2016-05-27T07:06:06.102Z,65
2016-05-27T07:07:06.088Z,65
2016-05-27T07:08:06.075Z,70
2016-05-27T07:09:06.063Z,70
2016-05-27T07:10:06.049Z,75
2016-05-27T07:11:06.037Z,75
2016-05-27T07:12:06.054Z,75
2016-05-27T07:13:06.042Z,80
2016-05-27T07:14:06.029Z,80
2016-05-27T07:15:06.016Z,85
2016-05-27T07:16:05.862Z,85
2016-05-27T07:17:05.818Z,85
2016-05-27T07:18:05.836Z,95
2016-05-27T07:19:06.965Z,100
2016-05-27T07:20:05.873Z,105
2016-05-27T07:21:05.923Z,105
2016-05-27T07:22:05.925Z,110
2016-05-27T07:23:05.773Z,110
2016-05-27T07:24:05.900Z,110
2016-05-27T07:25:05.902Z,115
2016-05-27T07:26:05.889Z,115
2016-05-27T07:27:06.049Z,120
2016-05-27T07:28:05.848Z,125
2016-05-27T07:29:05.835Z,125
2016-05-27T07:30:05.682Z,130
2016-05-27T07:31:05.810Z,130
2016-05-27T07:32:06.016Z,135
2016-05-27T07:33:05.783Z,140
2016-05-27T07:34:05.801Z,145
2016-05-27T07:35:06.180Z,150
2016-05-27T07:36:05.807Z,155
2016-05-27T07:37:05.763Z,160
2016-05-27T07:38:05.735Z,160
2016-05-27T07:39:05.721Z,165
2016-05-27T07:40:05.692Z,170
2016-05-27T07:41:05.540Z,175
2016-05-27T07:42:05.667Z,175
2016-05-27T07:43:05.685Z,180
2016-05-27T07:44:05.672Z,180
2016-05-27T07:45:05.629Z,180
2016-05-27T07:46:05.474Z,180
2016-05-27T07:47:05.618Z,180
2016-05-27T07:48:05.621Z,175
2016-05-27T07:49:05.342Z,175
2016-05-27T07:50:05.860Z,170
2016-05-27T07:51:05.567Z,170
2016-05-27T07:52:05.444Z,165
2016-05-27T07:53:05.602Z,170
2016-05-27T07:54:05.542Z,175
2016-05-27T07:55:05.358Z,180
2016-05-27T07:56:05.501Z,190
2016-05-27T07:57:05.379Z,190
2016-05-27T07:58:05.538Z,195
2016-05-27T07:59:05.478Z,205
2016-05-27T08:00:05.465Z,200
2016-05-27T08:01:05.312Z,200
2016-05-27T08:02:05.455Z,195
2016-05-27T08:03:05.285Z,190
2016-05-27T08:04:06.085Z,185
2016-05-27T08:05:05.432Z,180
2016-05-27T08:06:05.435Z,180
2016-05-27T08:07:05.390Z,180
2016-05-27T08:08:05.393Z,180
2016-05-27T08:09:05.207Z,180
2016-05-27T08:10:05.383Z,180
2016-05-27T08:11:05.338Z,180
2016-05-27T08:12:05.185Z,185
2016-05-27T08:13:05.343Z,190
2016-05-27T08:14:05.316Z,195
2016-05-27T08:15:05.303Z,205
2016-05-27T08:16:05.290Z,215
2016-05-27T08:17:05.292Z,235
2016-05-27T08:18:05.295Z,250
2016-05-27T08:19:05.220Z,265
2016-05-27T08:20:05.628Z,280
2016-05-27T08:21:05.240Z,295
2016-05-27T08:22:05.072Z,320
2016-05-27T08:23:05.058Z,350
2016-05-27T08:24:05.062Z,420
2016-05-27T08:25:05.220Z,595
2016-05-27T08:26:05.175Z,690
2016-05-27T08:27:05.178Z,955
2016-05-27T08:28:05.166Z,415
2016-05-27T08:29:05.153Z,315
2016-05-27T08:30:04.999Z,290
2016-05-27T08:31:05.142Z,300
2016-05-27T08:32:04.989Z,405
2016-05-27T08:33:04.819Z,525
2016-05-27T08:34:05.041Z,415
2016-05-27T08:35:05.435Z,320
2016-05-27T08:36:05.110Z,290
2016-05-27T08:37:05.096Z,265
2016-05-27T08:38:05.083Z,245
2016-05-27T08:39:05.070Z,240
2016-05-27T08:40:04.916Z,235
2016-05-27T08:41:05.044Z,225
2016-05-27T08:42:04.891Z,215
2016-05-27T08:43:05.049Z,205
2016-05-27T08:44:04.881Z,195
2016-05-27T08:45:04.868Z,190
2016-05-27T08:46:05.011Z,185
2016-05-27T08:47:05.014Z,190
2016-05-27T08:48:04.845Z,200
2016-05-27T08:49:05.019Z,205
2016-05-27T08:50:05.506Z,215
2016-05-27T08:51:05.196Z,220
2016-05-27T08:52:04.793Z,220
2016-05-27T08:53:04.968Z,220
2016-05-27T08:54:04.939Z,215
2016-05-27T08:55:04.786Z,205
2016-05-27T08:56:04.928Z,195
2016-05-27T08:57:04.759Z,185
2016-05-27T08:58:04.903Z,175
2016-05-27T08:59:04.889Z,175
2016-05-27T09:00:04.908Z,165
2016-05-27T09:01:05.207Z,165
2016-05-27T09:02:04.883Z,175
2016-05-27T09:03:04.603Z,180
2016-05-27T09:04:05.935Z,195
2016-05-27T09:05:05.516Z,190
2016-05-27T09:06:04.861Z,200
2016-05-27T09:07:04.818Z,205
2016-05-27T09:08:04.821Z,205
2016-05-27T09:09:04.807Z,205
2016-05-27T09:10:04.654Z,200
2016-05-27T09:11:04.797Z,195
2016-05-27T09:12:04.784Z,185
2016-05-27T09:13:04.615Z,180
2016-05-27T09:14:04.617Z,180
2016-05-27T09:15:04.746Z,185
2016-05-27T09:16:04.748Z,180
2016-05-27T09:17:04.734Z,180
2016-05-27T09:18:04.581Z,170
2016-05-27T09:19:05.335Z,165
2016-05-27T09:20:05.196Z,160
2016-05-27T09:21:04.698Z,155
2016-05-27T09:22:04.686Z,155
2016-05-27T09:23:04.719Z,155
2016-05-27T09:24:04.676Z,155
2016-05-27T09:25:04.523Z,160
2016-05-27T09:26:04.665Z,165
2016-05-27T09:27:04.653Z,170
2016-05-27T09:28:04.639Z,175
2016-05-27T09:29:04.486Z,175
2016-05-27T09:30:04.301Z,180
2016-05-27T09:31:04.647Z,185
2016-05-27T09:32:04.619Z,185
2016-05-27T09:33:04.606Z,185
2016-05-27T09:34:05.358Z,185
2016-05-27T09:35:04.830Z,180
2016-05-27T09:36:04.864Z,180
2016-05-27T09:37:04.414Z,180
2016-05-27T09:38:04.572Z,185
2016-05-27T09:39:04.388Z,185
2016-05-27T09:40:04.375Z,190
2016-05-27T09:41:05.362Z,195
2016-05-27T09:42:04.365Z,195
2016-05-27T09:43:04.524Z,200
2016-05-27T09:44:04.526Z,210
2016-05-27T09:45:04.326Z,215
2016-05-27T09:46:04.485Z,220
2016-05-27T09:47:04.315Z,220
2016-05-27T09:48:04.303Z,215
2016-05-27T09:49:04.337Z,205
2016-05-27T09:50:04.714Z,200
2016-05-27T09:51:04.467Z,195
2016-05-27T09:52:04.423Z,195
2016-05-27T09:53:04.425Z,195
2016-05-27T09:54:04.428Z,195
2016-05-27T09:55:04.415Z,195
2016-05-27T09:56:04.278Z,200
2016-05-27T09:57:04.233Z,200
2016-05-27T09:58:04.376Z,205
2016-05-27T09:59:04.222Z,205
2016-05-27T10:00:04.367Z,210
2016-05-27T10:01:04.228Z,215
2016-05-27T10:02:04.341Z,220
2016-05-27T10:03:04.343Z,225
2016-05-27T10:04:04.346Z,225
2016-05-27T10:05:05.035Z,225
2016-05-27T10:06:04.320Z,230
2016-05-27T10:07:04.308Z,235
2016-05-27T10:08:04.310Z,235
2016-05-27T10:09:03.984Z,240
2016-05-27T10:10:04.268Z,245
2016-05-27T10:11:04.270Z,255
2016-05-27T10:12:04.288Z,270
2016-05-27T10:13:04.105Z,270
2016-05-27T10:14:04.232Z,275
2016-05-27T10:15:04.297Z,285
2016-05-27T10:16:04.253Z,295
2016-05-27T10:17:04.240Z,305
2016-05-27T10:18:04.212Z,315
2016-05-27T10:19:04.418Z,330
2016-05-27T10:20:03.889Z,335
2016-05-27T10:21:04.173Z,345
2016-05-27T10:22:04.175Z,350
2016-05-27T10:23:04.193Z,355
2016-05-27T10:24:04.009Z,365
2016-05-27T10:25:03.731Z,375
2016-05-27T10:26:04.170Z,380
2016-05-27T10:27:04.126Z,385
2016-05-27T10:28:05.270Z,385
2016-05-27T10:29:04.131Z,385
2016-05-27T10:30:03.947Z,390
2016-05-27T10:31:04.106Z,390
2016-05-27T10:32:03.936Z,395
2016-05-27T10:33:03.955Z,395
2016-05-27T10:34:03.973Z,390
2016-05-27T10:35:04.632Z,390
2016-05-27T10:36:04.072Z,395
2016-05-27T10:37:03.919Z,395
2016-05-27T10:38:04.046Z,400
2016-05-27T10:39:04.050Z,400
2016-05-27T10:40:04.036Z,395
2016-05-27T10:41:03.882Z,390
2016-05-27T10:42:03.886Z,390
2016-05-27T10:43:08.576Z,395
2016-05-27T10:44:04.000Z,400
2016-05-27T10:45:03.847Z,400
2016-05-27T10:46:04.005Z,405
2016-05-27T10:47:03.993Z,405
2016-05-27T10:48:10.120Z,405
2016-05-27T10:49:03.998Z,415
2016-05-27T10:50:03.984Z,420
2016-05-27T10:51:03.972Z,425
2016-05-27T10:52:03.788Z,430
2016-05-27T10:53:04.071Z,445
2016-05-27T10:54:03.948Z,460
2016-05-27T10:55:03.951Z,475
2016-05-27T10:56:03.829Z,485
2016-05-27T10:57:03.967Z,510
2016-05-27T10:58:03.964Z,505
2016-05-27T10:59:04.008Z,520
2016-05-27T11:00:04.020Z,525
2016-05-27T11:01:04.018Z,570
2016-05-27T11:02:03.874Z,695
2016-05-27T11:03:04.058Z,670
2016-05-27T11:04:04.226Z,740
2016-05-27T11:05:05.643Z,1075
2016-05-27T11:06:04.250Z,700
2016-05-27T11:07:04.053Z,790
2016-05-27T11:08:04.043Z,860
2016-05-27T11:09:04.049Z,1095
2016-05-27T11:10:04.040Z,1095
2016-05-27T11:11:03.750Z,815
2016-05-27T11:12:03.722Z,760
2016-05-27T11:13:04.054Z,765
2016-05-27T11:14:04.025Z,740
2016-05-27T11:15:04.030Z,715
2016-05-27T11:16:04.019Z,1600
2016-05-27T11:17:04.053Z,735
2016-05-27T11:18:04.009Z,780
2016-05-27T11:19:03.527Z,1160
2016-05-27T11:20:04.843Z,1190
2016-05-27T11:21:07.596Z,1175
2016-05-27T11:22:04.006Z,2015
2016-05-27T11:23:03.852Z,1915
2016-05-27T11:24:03.824Z,1145
2016-05-27T11:25:03.811Z,1395
2016-05-27T11:26:08.237Z,1550
2016-05-27T11:27:03.817Z,1010
2016-05-27T11:28:03.820Z,1275
2016-05-27T11:29:03.963Z,960
2016-05-27T11:30:03.966Z,1580
2016-05-27T11:31:09.999Z,1180
2016-05-27T11:32:03.659Z,1575
2016-05-27T11:33:04.255Z,1960
2016-05-27T11:34:03.960Z,2160
2016-05-27T11:35:04.558Z,1880
2016-05-27T11:36:06.045Z,1550
2016-05-27T11:37:03.812Z,1480
2016-05-27T11:38:03.879Z,1555
2016-05-27T11:39:03.662Z,1955
2016-05-27T11:40:03.977Z,1870
2016-05-27T11:41:05.902Z,1920
2016-05-27T11:42:03.670Z,2025
2016-05-27T11:43:03.985Z,2025
2016-05-27T11:44:03.957Z,2150
2016-05-27T11:45:03.819Z,1865
2016-05-27T11:46:08.181Z,1925
2016-05-27T11:47:03.965Z,1920
2016-05-27T11:48:03.827Z,2060
2016-05-27T11:49:04.001Z,2125
2016-05-27T11:50:03.676Z,2105
2016-05-27T11:51:04.491Z,2050
2016-05-27T11:52:03.995Z,2015
2016-05-27T11:53:03.997Z,1730
2016-05-27T11:54:03.827Z,1865
2016-05-27T11:55:04.002Z,1540
2016-05-27T11:56:09.161Z,2020
2016-05-27T11:57:04.007Z,1695
2016-05-27T11:58:04.010Z,1640
2016-05-27T11:59:03.997Z,1155
2016-05-27T12:00:04.030Z,965
2016-05-27T12:01:07.581Z,1100
2016-05-27T12:02:04.036Z,1035
2016-05-27T12:03:04.024Z,1565
2016-05-27T12:04:04.057Z,1590
2016-05-27T12:05:04.701Z,1215
2016-05-27T12:06:07.938Z,900
2016-05-27T12:07:04.050Z,1010
2016-05-27T12:08:04.068Z,890
2016-05-27T12:09:03.915Z,945
2016-05-27T12:10:04.042Z,1020
2016-05-27T12:11:08.093Z,1100
2016-05-27T12:12:04.126Z,1435
2016-05-27T12:13:04.051Z,1940
2016-05-27T12:14:04.053Z,2235
2016-05-27T12:15:04.056Z,1715
2016-05-27T12:16:04.059Z,2400
2016-05-27T12:17:04.061Z,2465
2016-05-27T12:18:04.064Z,2405
2016-05-27T12:19:03.956Z,2185
2016-05-27T12:20:04.351Z,1785
2016-05-27T12:21:04.072Z,2050
2016-05-27T12:22:03.918Z,2045
2016-05-27T12:23:03.781Z,2160
2016-05-27T12:24:04.064Z,2305
2016-05-27T12:25:04.192Z,2045
2016-05-27T12:26:03.633Z,1955
2016-05-27T12:27:04.088Z,2065
2016-05-27T12:28:04.106Z,2120
2016-05-27T12:29:04.140Z,2135
2016-05-27T12:30:04.111Z,2225
2016-05-27T12:31:03.958Z,2240
2016-05-27T12:32:03.960Z,2190
2016-05-27T12:33:04.151Z,2120
2016-05-27T12:34:04.013Z,2045
2016-05-27T12:35:04.360Z,2070
2016-05-27T12:36:04.144Z,2125
2016-05-27T12:37:04.005Z,2095
2016-05-27T12:38:03.993Z,2080
2016-05-27T12:39:04.183Z,1905
2016-05-27T12:40:04.154Z,2000
2016-05-27T12:41:04.157Z,1315
2016-05-27T12:42:04.176Z,1130
2016-05-27T12:43:04.178Z,1045
2016-05-27T12:44:04.962Z,1380
2016-05-27T12:45:04.183Z,1070
2016-05-27T12:46:04.029Z,1150
2016-05-27T12:47:04.048Z,950
2016-05-27T12:48:04.051Z,880
2016-05-27T12:49:05.320Z,1035
2016-05-27T12:50:04.869Z,1575
2016-05-27T12:51:04.262Z,1580
2016-05-27T12:52:04.234Z,1455
2016-05-27T12:53:04.220Z,2045
2016-05-27T12:54:04.505Z,1855
2016-05-27T12:55:04.100Z,1925
2016-05-27T12:56:04.260Z,1465
2016-05-27T12:57:04.247Z,1145
2016-05-27T12:58:04.094Z,1485
2016-05-27T12:59:04.111Z,1255
2016-05-27T13:00:04.255Z,850
2016-05-27T13:01:04.102Z,670
2016-05-27T13:02:03.933Z,650
2016-05-27T13:03:04.279Z,705
2016-05-27T13:04:04.484Z,765
2016-05-27T13:05:04.472Z,745
2016-05-27T13:06:04.130Z,760
2016-05-27T13:07:04.290Z,705
2016-05-27T13:08:04.105Z,695
2016-05-27T13:09:04.279Z,680
2016-05-27T13:10:04.001Z,680
2016-05-27T13:11:04.129Z,645
2016-05-27T13:12:04.319Z,465
2016-05-27T13:13:04.290Z,410
2016-05-27T13:14:03.965Z,380
2016-05-27T13:15:04.124Z,360
2016-05-27T13:16:04.126Z,315
2016-05-27T13:17:04.317Z,285
2016-05-27T13:18:04.147Z,265
2016-05-27T13:19:04.306Z,260
2016-05-27T13:20:04.434Z,260
2016-05-27T13:21:04.312Z,270
2016-05-27T13:22:04.158Z,285
2016-05-27T13:23:04.176Z,310
2016-05-27T13:24:04.303Z,325
2016-05-27T13:25:04.369Z,330
2016-05-27T13:26:04.309Z,330
2016-05-27T13:27:04.312Z,335
2016-05-27T13:28:04.346Z,360
2016-05-27T13:29:04.333Z,375
2016-05-27T13:30:04.305Z,400
2016-05-27T13:31:04.322Z,450
2016-05-27T13:32:04.153Z,400
2016-05-27T13:33:04.344Z,385
2016-05-27T13:34:04.003Z,400
2016-05-27T13:35:04.928Z,410
2016-05-27T13:36:04.133Z,380
2016-05-27T13:37:04.152Z,350
2016-05-27T13:38:04.294Z,325
2016-05-27T13:39:04.297Z,305
2016-05-27T13:40:04.284Z,305
2016-05-27T13:41:04.132Z,280
2016-05-27T13:42:04.118Z,265
2016-05-27T13:43:04.293Z,250
2016-05-27T13:44:04.123Z,240
2016-05-27T13:45:04.282Z,235
2016-05-27T13:46:04.269Z,235
2016-05-27T13:47:04.272Z,230
2016-05-27T13:48:03.978Z,225
2016-05-27T13:49:04.309Z,215
2016-05-27T13:50:04.359Z,215
2016-05-27T13:51:03.954Z,220
2016-05-27T13:52:04.254Z,225
2016-05-27T13:53:04.256Z,235
2016-05-27T13:54:04.244Z,245
2016-05-27T13:55:04.122Z,255
2016-05-27T13:56:04.233Z,270
2016-05-27T13:57:04.253Z,285
2016-05-27T13:58:04.255Z,295
2016-05-27T13:59:04.242Z,315
2016-05-27T14:00:04.073Z,325
2016-05-27T14:01:04.075Z,330
2016-05-27T14:02:04.203Z,340
2016-05-27T14:03:04.049Z,345
2016-05-27T14:04:04.239Z,340
2016-05-27T14:05:03.914Z,335
2016-05-27T14:06:04.198Z,335